sensor_id;sensor_type;location;lat;lon;timestamp;P1;durP1;ratioP1;P2;durP2;ratioP2
80565;SDS011;69915;54.862;10.730;2024-03-29T00:00:36;13.60;;;5.40;;
80565;SDS011;69915;54.862;10.730;2024-03-29T00:03:03;11.55;;;5.10;;
80565;SDS011;69915;54.862;10.730;2024-03-29T00:05:29;12.75;;;5.55;;
80565;SDS011;69915;54.862;10.730;2024-03-29T00:07:54;11.10;;;4.90;;
80565;SDS011;69915;54.862;10.730;2024-03-29T00:10:20;9.30;;;4.03;;
80565;SDS011;69915;54.862;10.730;2024-03-29T00:12:46;9.70;;;5.35;;
80565;SDS011;69915;54.862;10.730;2024-03-29T00:15:12;9.07;;;3.95;;
80565;SDS011;69915;54.862;10.730;2024-03-29T00:17:37;9.38;;;5.32;;
80565;SDS011;69915;54.862;10.730;2024-03-29T00:20:04;7.93;;;4.97;;
80565;SDS011;69915;54.862;10.730;2024-03-29T00:22:31;10.73;;;4.78;;
80565;SDS011;69915;54.862;10.730;2024-03-29T00:24:56;7.85;;;4.22;;
80565;SDS011;69915;54.862;10.730;2024-03-29T00:27:22;10.73;;;4.38;;
80565;SDS011;69915;54.862;10.730;2024-03-29T00:29:50;7.05;;;3.95;;
80565;SDS011;69915;54.862;10.730;2024-03-29T00:32:21;7.82;;;3.88;;
80565;SDS011;69915;54.862;10.730;2024-03-29T00:34:49;6.57;;;3.78;;
80565;SDS011;69915;54.862;10.730;2024-03-29T00:37:15;7.53;;;3.78;;
80565;SDS011;69915;54.862;10.730;2024-03-29T00:39:41;8.02;;;3.03;;
80565;SDS011;69915;54.862;10.730;2024-03-29T00:42:09;7.00;;;2.60;;
80565;SDS011;69915;54.862;10.730;2024-03-29T00:44:37;5.90;;;3.20;;
80565;SDS011;69915;54.862;10.730;2024-03-29T00:47:07;5.82;;;2.97;;
80565;SDS011;69915;54.862;10.730;2024-03-29T00:49:33;6.82;;;3.15;;
80565;SDS011;69915;54.862;10.730;2024-03-29T00:51:59;5.97;;;3.30;;
80565;SDS011;69915;54.862;10.730;2024-03-29T00:54:24;5.15;;;2.50;;
80565;SDS011;69915;54.862;10.730;2024-03-29T00:56:50;6.43;;;2.70;;
80565;SDS011;69915;54.862;10.730;2024-03-29T00:59:16;7.40;;;3.30;;
80565;SDS011;69915;54.862;10.730;2024-03-29T01:01:42;9.00;;;2.92;;
80565;SDS011;69915;54.862;10.730;2024-03-29T01:04:07;8.02;;;3.33;;
80565;SDS011;69915;54.862;10.730;2024-03-29T01:06:33;5.60;;;2.88;;
80565;SDS011;69915;54.862;10.730;2024-03-29T01:08:59;6.45;;;3.00;;
80565;SDS011;69915;54.862;10.730;2024-03-29T01:11:25;6.30;;;3.17;;
80565;SDS011;69915;54.862;10.730;2024-03-29T01:13:51;5.35;;;2.85;;
80565;SDS011;69915;54.862;10.730;2024-03-29T01:16:17;5.60;;;2.33;;
80565;SDS011;69915;54.862;10.730;2024-03-29T01:18:43;6.82;;;2.20;;
80565;SDS011;69915;54.862;10.730;2024-03-29T01:21:09;4.60;;;2.45;;
80565;SDS011;69915;54.862;10.730;2024-03-29T01:23:34;4.13;;;2.13;;
80565;SDS011;69915;54.862;10.730;2024-03-29T01:26:00;6.32;;;2.63;;
80565;SDS011;69915;54.862;10.730;2024-03-29T01:28:26;3.75;;;2.03;;
80565;SDS011;69915;54.862;10.730;2024-03-29T01:30:52;5.32;;;2.55;;
80565;SDS011;69915;54.862;10.730;2024-03-29T01:33:19;5.63;;;1.98;;
80565;SDS011;69915;54.862;10.730;2024-03-29T01:35:45;3.83;;;2.25;;
80565;SDS011;69915;54.862;10.730;2024-03-29T01:38:10;5.95;;;2.40;;
80565;SDS011;69915;54.862;10.730;2024-03-29T01:40:36;4.90;;;2.22;;
80565;SDS011;69915;54.862;10.730;2024-03-29T01:43:02;5.75;;;2.28;;
80565;SDS011;69915;54.862;10.730;2024-03-29T01:45:28;4.10;;;2.30;;
80565;SDS011;69915;54.862;10.730;2024-03-29T01:47:55;6.80;;;2.30;;
80565;SDS011;69915;54.862;10.730;2024-03-29T01:50:20;3.20;;;1.63;;
80565;SDS011;69915;54.862;10.730;2024-03-29T01:52:46;3.40;;;1.85;;
80565;SDS011;69915;54.862;10.730;2024-03-29T01:55:13;5.00;;;2.03;;
80565;SDS011;69915;54.862;10.730;2024-03-29T01:57:39;2.42;;;1.40;;
80565;SDS011;69915;54.862;10.730;2024-03-29T02:00:06;4.45;;;1.65;;
80565;SDS011;69915;54.862;10.730;2024-03-29T02:02:33;3.15;;;1.55;;
80565;SDS011;69915;54.862;10.730;2024-03-29T02:04:58;4.05;;;1.58;;
80565;SDS011;69915;54.862;10.730;2024-03-29T02:07:25;2.60;;;1.30;;
80565;SDS011;69915;54.862;10.730;2024-03-29T02:09:50;6.25;;;2.22;;
80565;SDS011;69915;54.862;10.730;2024-03-29T02:12:16;5.68;;;1.67;;
80565;SDS011;69915;54.862;10.730;2024-03-29T02:14:42;3.42;;;1.73;;
80565;SDS011;69915;54.862;10.730;2024-03-29T02:17:08;3.60;;;1.80;;
80565;SDS011;69915;54.862;10.730;2024-03-29T02:19:34;4.78;;;1.83;;
80565;SDS011;69915;54.862;10.730;2024-03-29T02:22:00;4.55;;;1.73;;
80565;SDS011;69915;54.862;10.730;2024-03-29T02:24:30;4.70;;;1.77;;
80565;SDS011;69915;54.862;10.730;2024-03-29T02:26:56;6.45;;;2.08;;
80565;SDS011;69915;54.862;10.730;2024-03-29T02:29:23;2.85;;;1.38;;
80565;SDS011;69915;54.862;10.730;2024-03-29T02:31:49;3.97;;;1.73;;
80565;SDS011;69915;54.862;10.730;2024-03-29T02:34:14;4.05;;;1.60;;
80565;SDS011;69915;54.862;10.730;2024-03-29T02:36:40;4.13;;;1.60;;
80565;SDS011;69915;54.862;10.730;2024-03-29T02:39:09;2.72;;;1.35;;
80565;SDS011;69915;54.862;10.730;2024-03-29T02:41:35;2.85;;;1.30;;
80565;SDS011;69915;54.862;10.730;2024-03-29T02:44:01;11.07;;;1.90;;
80565;SDS011;69915;54.862;10.730;2024-03-29T02:46:26;3.30;;;1.05;;
80565;SDS011;69915;54.862;10.730;2024-03-29T02:48:52;2.83;;;1.35;;
80565;SDS011;69915;54.862;10.730;2024-03-29T02:51:18;3.53;;;1.38;;
80565;SDS011;69915;54.862;10.730;2024-03-29T02:53:43;3.17;;;1.27;;
80565;SDS011;69915;54.862;10.730;2024-03-29T02:56:09;3.15;;;1.30;;
80565;SDS011;69915;54.862;10.730;2024-03-29T02:58:35;4.20;;;1.77;;
80565;SDS011;69915;54.862;10.730;2024-03-29T03:01:10;4.65;;;1.73;;
80565;SDS011;69915;54.862;10.730;2024-03-29T03:03:35;1.65;;;0.65;;
80565;SDS011;69915;54.862;10.730;2024-03-29T03:06:02;2.45;;;1.25;;
80565;SDS011;69915;54.862;10.730;2024-03-29T03:08:28;2.65;;;1.15;;
80565;SDS011;69915;54.862;10.730;2024-03-29T03:14:35;2.30;;;1.17;;
80565;SDS011;69915;54.862;10.730;2024-03-29T03:17:00;3.58;;;1.17;;
80565;SDS011;69915;54.862;10.730;2024-03-29T03:19:26;3.35;;;1.10;;
80565;SDS011;69915;54.862;10.730;2024-03-29T03:21:51;3.08;;;1.40;;
80565;SDS011;69915;54.862;10.730;2024-03-29T03:24:17;2.50;;;1.05;;
80565;SDS011;69915;54.862;10.730;2024-03-29T03:26:42;4.93;;;1.08;;
80565;SDS011;69915;54.862;10.730;2024-03-29T03:29:08;3.00;;;1.10;;
80565;SDS011;69915;54.862;10.730;2024-03-29T03:31:35;8.02;;;1.15;;
80565;SDS011;69915;54.862;10.730;2024-03-29T03:34:01;1.17;;;0.60;;
80565;SDS011;69915;54.862;10.730;2024-03-29T03:36:26;2.33;;;1.00;;
80565;SDS011;69915;54.862;10.730;2024-03-29T03:38:52;1.80;;;0.90;;
80565;SDS011;69915;54.862;10.730;2024-03-29T03:41:17;6.60;;;1.10;;
80565;SDS011;69915;54.862;10.730;2024-03-29T03:43:43;4.82;;;1.52;;
80565;SDS011;69915;54.862;10.730;2024-03-29T03:46:08;6.47;;;1.08;;
80565;SDS011;69915;54.862;10.730;2024-03-29T03:48:34;3.13;;;1.65;;
80565;SDS011;69915;54.862;10.730;2024-03-29T03:50:59;3.33;;;0.73;;
80565;SDS011;69915;54.862;10.730;2024-03-29T03:53:25;2.22;;;0.77;;
80565;SDS011;69915;54.862;10.730;2024-03-29T03:55:50;1.90;;;0.75;;
80565;SDS011;69915;54.862;10.730;2024-03-29T03:58:16;4.05;;;0.90;;
80565;SDS011;69915;54.862;10.730;2024-03-29T04:00:41;3.50;;;1.08;;
80565;SDS011;69915;54.862;10.730;2024-03-29T04:03:08;2.10;;;1.05;;
80565;SDS011;69915;54.862;10.730;2024-03-29T04:05:36;1.17;;;0.80;;
80565;SDS011;69915;54.862;10.730;2024-03-29T04:08:02;2.80;;;0.73;;
80565;SDS011;69915;54.862;10.730;2024-03-29T04:10:29;3.45;;;1.02;;
80565;SDS011;69915;54.862;10.730;2024-03-29T04:12:54;3.92;;;1.13;;
80565;SDS011;69915;54.862;10.730;2024-03-29T04:15:20;2.28;;;1.13;;
80565;SDS011;69915;54.862;10.730;2024-03-29T04:17:46;3.15;;;1.02;;
80565;SDS011;69915;54.862;10.730;2024-03-29T04:20:11;3.70;;;1.08;;
80565;SDS011;69915;54.862;10.730;2024-03-29T04:22:37;3.25;;;0.80;;
80565;SDS011;69915;54.862;10.730;2024-03-29T04:25:02;2.00;;;0.63;;
80565;SDS011;69915;54.862;10.730;2024-03-29T04:27:28;2.70;;;0.85;;
80565;SDS011;69915;54.862;10.730;2024-03-29T04:29:54;4.43;;;1.20;;
80565;SDS011;69915;54.862;10.730;2024-03-29T04:32:20;5.00;;;1.02;;
80565;SDS011;69915;54.862;10.730;2024-03-29T04:34:46;5.82;;;1.20;;
80565;SDS011;69915;54.862;10.730;2024-03-29T04:37:12;2.55;;;1.10;;
80565;SDS011;69915;54.862;10.730;2024-03-29T04:39:38;2.47;;;0.47;;
80565;SDS011;69915;54.862;10.730;2024-03-29T04:42:04;2.08;;;0.47;;
80565;SDS011;69915;54.862;10.730;2024-03-29T04:44:30;3.42;;;0.75;;
80565;SDS011;69915;54.862;10.730;2024-03-29T04:46:55;6.55;;;1.13;;
80565;SDS011;69915;54.862;10.730;2024-03-29T04:49:24;1.55;;;0.70;;
80565;SDS011;69915;54.862;10.730;2024-03-29T04:51:58;2.20;;;0.85;;
80565;SDS011;69915;54.862;10.730;2024-03-29T04:54:24;4.13;;;1.65;;
80565;SDS011;69915;54.862;10.730;2024-03-29T04:56:50;1.67;;;0.80;;
80565;SDS011;69915;54.862;10.730;2024-03-29T04:59:16;1.60;;;0.73;;
80565;SDS011;69915;54.862;10.730;2024-03-29T05:01:43;2.53;;;0.95;;
80565;SDS011;69915;54.862;10.730;2024-03-29T05:04:09;4.70;;;1.00;;
80565;SDS011;69915;54.862;10.730;2024-03-29T05:06:35;5.00;;;1.35;;
80565;SDS011;69915;54.862;10.730;2024-03-29T05:09:01;2.75;;;0.60;;
80565;SDS011;69915;54.862;10.730;2024-03-29T05:11:26;1.48;;;0.70;;
80565;SDS011;69915;54.862;10.730;2024-03-29T05:13:52;2.92;;;0.57;;
80565;SDS011;69915;54.862;10.730;2024-03-29T05:16:18;1.45;;;0.68;;
80565;SDS011;69915;54.862;10.730;2024-03-29T05:18:43;2.17;;;0.77;;
80565;SDS011;69915;54.862;10.730;2024-03-29T05:21:09;1.00;;;0.30;;
80565;SDS011;69915;54.862;10.730;2024-03-29T05:23:35;4.55;;;0.85;;
80565;SDS011;69915;54.862;10.730;2024-03-29T05:26:00;2.10;;;0.80;;
80565;SDS011;69915;54.862;10.730;2024-03-29T05:28:26;4.05;;;0.82;;
80565;SDS011;69915;54.862;10.730;2024-03-29T05:30:52;1.50;;;0.55;;
80565;SDS011;69915;54.862;10.730;2024-03-29T05:33:17;1.45;;;0.60;;
80565;SDS011;69915;54.862;10.730;2024-03-29T05:35:43;1.88;;;0.47;;
80565;SDS011;69915;54.862;10.730;2024-03-29T05:38:09;3.80;;;1.00;;
80565;SDS011;69915;54.862;10.730;2024-03-29T05:40:34;3.35;;;0.90;;
80565;SDS011;69915;54.862;10.730;2024-03-29T05:43:00;2.53;;;1.05;;
80565;SDS011;69915;54.862;10.730;2024-03-29T05:45:27;1.75;;;0.40;;
80565;SDS011;69915;54.862;10.730;2024-03-29T05:47:54;4.45;;;0.95;;
80565;SDS011;69915;54.862;10.730;2024-03-29T05:50:21;2.00;;;0.82;;
80565;SDS011;69915;54.862;10.730;2024-03-29T05:52:47;1.30;;;0.60;;
80565;SDS011;69915;54.862;10.730;2024-03-29T05:55:13;1.67;;;0.52;;
80565;SDS011;69915;54.862;10.730;2024-03-29T05:57:39;2.03;;;0.47;;
80565;SDS011;69915;54.862;10.730;2024-03-29T06:00:07;5.57;;;0.70;;
80565;SDS011;69915;54.862;10.730;2024-03-29T06:02:36;0.70;;;0.35;;
80565;SDS011;69915;54.862;10.730;2024-03-29T06:05:01;1.05;;;0.43;;
80565;SDS011;69915;54.862;10.730;2024-03-29T06:07:27;1.38;;;0.30;;
80565;SDS011;69915;54.862;10.730;2024-03-29T06:09:54;3.20;;;0.60;;
80565;SDS011;69915;54.862;10.730;2024-03-29T06:12:20;2.38;;;0.50;;
80565;SDS011;69915;54.862;10.730;2024-03-29T06:14:46;1.27;;;0.52;;
80565;SDS011;69915;54.862;10.730;2024-03-29T06:17:30;2.95;;;0.95;;
80565;SDS011;69915;54.862;10.730;2024-03-29T06:19:56;0.82;;;0.32;;
80565;SDS011;69915;54.862;10.730;2024-03-29T06:22:23;1.48;;;0.55;;
80565;SDS011;69915;54.862;10.730;2024-03-29T06:24:49;1.45;;;0.73;;
80565;SDS011;69915;54.862;10.730;2024-03-29T06:27:23;1.83;;;0.40;;
80565;SDS011;69915;54.862;10.730;2024-03-29T06:29:51;2.83;;;0.55;;
80565;SDS011;69915;54.862;10.730;2024-03-29T06:32:17;4.72;;;0.80;;
80565;SDS011;69915;54.862;10.730;2024-03-29T06:34:43;2.17;;;0.60;;
80565;SDS011;69915;54.862;10.730;2024-03-29T06:37:10;1.83;;;0.43;;
80565;SDS011;69915;54.862;10.730;2024-03-29T06:39:36;1.30;;;0.45;;
80565;SDS011;69915;54.862;10.730;2024-03-29T06:42:02;2.22;;;0.73;;
80565;SDS011;69915;54.862;10.730;2024-03-29T06:44:28;1.05;;;0.45;;
80565;SDS011;69915;54.862;10.730;2024-03-29T06:46:54;3.22;;;0.60;;
80565;SDS011;69915;54.862;10.730;2024-03-29T06:49:19;0.52;;;0.30;;
80565;SDS011;69915;54.862;10.730;2024-03-29T06:51:45;1.40;;;0.57;;
80565;SDS011;69915;54.862;10.730;2024-03-29T06:54:10;2.25;;;0.65;;
80565;SDS011;69915;54.862;10.730;2024-03-29T06:56:36;1.33;;;0.60;;
80565;SDS011;69915;54.862;10.730;2024-03-29T06:59:01;0.60;;;0.20;;
80565;SDS011;69915;54.862;10.730;2024-03-29T07:01:27;2.72;;;0.50;;
80565;SDS011;69915;54.862;10.730;2024-03-29T07:03:53;1.60;;;0.68;;
80565;SDS011;69915;54.862;10.730;2024-03-29T07:06:18;1.02;;;0.28;;
80565;SDS011;69915;54.862;10.730;2024-03-29T07:08:44;3.35;;;0.63;;
80565;SDS011;69915;54.862;10.730;2024-03-29T07:11:10;4.53;;;0.40;;
80565;SDS011;69915;54.862;10.730;2024-03-29T07:13:35;1.13;;;0.60;;
80565;SDS011;69915;54.862;10.730;2024-03-29T07:16:02;0.82;;;0.40;;
80565;SDS011;69915;54.862;10.730;2024-03-29T07:18:28;2.78;;;0.50;;
80565;SDS011;69915;54.862;10.730;2024-03-29T07:20:54;0.80;;;0.20;;
80565;SDS011;69915;54.862;10.730;2024-03-29T07:23:20;1.10;;;0.43;;
80565;SDS011;69915;54.862;10.730;2024-03-29T07:25:56;1.27;;;0.45;;
80565;SDS011;69915;54.862;10.730;2024-03-29T07:28:23;2.42;;;0.60;;
80565;SDS011;69915;54.862;10.730;2024-03-29T07:30:49;1.35;;;0.35;;
80565;SDS011;69915;54.862;10.730;2024-03-29T07:33:18;1.08;;;0.38;;
80565;SDS011;69915;54.862;10.730;2024-03-29T07:35:51;1.45;;;0.52;;
80565;SDS011;69915;54.862;10.730;2024-03-29T07:38:20;0.45;;;0.28;;
80565;SDS011;69915;54.862;10.730;2024-03-29T07:40:47;1.20;;;0.40;;
80565;SDS011;69915;54.862;10.730;2024-03-29T07:43:13;2.40;;;0.60;;
80565;SDS011;69915;54.862;10.730;2024-03-29T07:45:40;0.70;;;0.35;;
80565;SDS011;69915;54.862;10.730;2024-03-29T07:48:07;0.90;;;0.32;;
80565;SDS011;69915;54.862;10.730;2024-03-29T07:50:34;3.13;;;0.73;;
80565;SDS011;69915;54.862;10.730;2024-03-29T07:53:02;2.05;;;0.60;;
80565;SDS011;69915;54.862;10.730;2024-03-29T07:55:27;1.27;;;0.43;;
80565;SDS011;69915;54.862;10.730;2024-03-29T07:57:53;2.15;;;0.47;;
80565;SDS011;69915;54.862;10.730;2024-03-29T08:00:18;1.88;;;0.57;;
80565;SDS011;69915;54.862;10.730;2024-03-29T08:02:44;3.30;;;0.82;;
80565;SDS011;69915;54.862;10.730;2024-03-29T08:05:11;0.70;;;0.22;;
80565;SDS011;69915;54.862;10.730;2024-03-29T08:07:36;0.80;;;0.30;;
80565;SDS011;69915;54.862;10.730;2024-03-29T08:10:02;0.50;;;0.22;;
80565;SDS011;69915;54.862;10.730;2024-03-29T08:12:28;1.48;;;0.55;;
80565;SDS011;69915;54.862;10.730;2024-03-29T08:14:53;1.33;;;0.45;;
80565;SDS011;69915;54.862;10.730;2024-03-29T08:17:19;3.05;;;0.40;;
80565;SDS011;69915;54.862;10.730;2024-03-29T08:19:45;1.10;;;0.52;;
80565;SDS011;69915;54.862;10.730;2024-03-29T08:22:10;1.20;;;0.50;;
80565;SDS011;69915;54.862;10.730;2024-03-29T08:24:36;0.88;;;0.47;;
80565;SDS011;69915;54.862;10.730;2024-03-29T08:27:02;1.10;;;0.30;;
80565;SDS011;69915;54.862;10.730;2024-03-29T08:29:28;4.55;;;0.63;;
80565;SDS011;69915;54.862;10.730;2024-03-29T08:31:54;2.70;;;0.75;;
80565;SDS011;69915;54.862;10.730;2024-03-29T08:34:20;3.78;;;0.63;;
80565;SDS011;69915;54.862;10.730;2024-03-29T08:36:45;6.35;;;0.68;;
80565;SDS011;69915;54.862;10.730;2024-03-29T08:39:11;2.42;;;0.98;;
80565;SDS011;69915;54.862;10.730;2024-03-29T08:41:36;2.95;;;0.90;;
80565;SDS011;69915;54.862;10.730;2024-03-29T08:44:02;0.98;;;0.40;;
80565;SDS011;69915;54.862;10.730;2024-03-29T08:46:28;2.38;;;0.50;;
80565;SDS011;69915;54.862;10.730;2024-03-29T08:48:53;4.90;;;0.80;;
80565;SDS011;69915;54.862;10.730;2024-03-29T08:51:22;4.78;;;0.75;;
80565;SDS011;69915;54.862;10.730;2024-03-29T08:53:47;2.95;;;0.80;;
80565;SDS011;69915;54.862;10.730;2024-03-29T08:56:14;3.58;;;1.10;;
80565;SDS011;69915;54.862;10.730;2024-03-29T08:58:40;4.65;;;0.88;;
80565;SDS011;69915;54.862;10.730;2024-03-29T09:01:06;1.23;;;0.70;;
80565;SDS011;69915;54.862;10.730;2024-03-29T09:03:31;2.95;;;0.80;;
80565;SDS011;69915;54.862;10.730;2024-03-29T09:05:57;2.03;;;0.60;;
80565;SDS011;69915;54.862;10.730;2024-03-29T09:08:23;2.05;;;0.43;;
80565;SDS011;69915;54.862;10.730;2024-03-29T09:10:50;2.13;;;0.60;;
80565;SDS011;69915;54.862;10.730;2024-03-29T09:13:15;1.33;;;0.32;;
80565;SDS011;69915;54.862;10.730;2024-03-29T09:15:41;6.78;;;0.77;;
80565;SDS011;69915;54.862;10.730;2024-03-29T09:18:07;2.75;;;0.57;;
80565;SDS011;69915;54.862;10.730;2024-03-29T09:20:44;5.82;;;0.65;;
80565;SDS011;69915;54.862;10.730;2024-03-29T09:23:10;3.15;;;0.80;;
80565;SDS011;69915;54.862;10.730;2024-03-29T09:25:40;2.00;;;0.60;;
80565;SDS011;69915;54.862;10.730;2024-03-29T09:28:05;1.73;;;0.70;;
80565;SDS011;69915;54.862;10.730;2024-03-29T09:30:31;5.18;;;0.75;;
80565;SDS011;69915;54.862;10.730;2024-03-29T09:32:58;1.60;;;0.50;;
80565;SDS011;69915;54.862;10.730;2024-03-29T09:35:23;2.28;;;0.65;;
80565;SDS011;69915;54.862;10.730;2024-03-29T09:37:50;2.97;;;0.40;;
80565;SDS011;69915;54.862;10.730;2024-03-29T09:40:15;0.95;;;0.43;;
80565;SDS011;69915;54.862;10.730;2024-03-29T09:42:43;3.85;;;0.90;;
80565;SDS011;69915;54.862;10.730;2024-03-29T09:45:09;1.58;;;0.60;;
80565;SDS011;69915;54.862;10.730;2024-03-29T09:47:36;6.85;;;0.88;;
80565;SDS011;69915;54.862;10.730;2024-03-29T09:50:03;4.38;;;0.82;;
80565;SDS011;69915;54.862;10.730;2024-03-29T09:52:33;1.80;;;0.85;;
80565;SDS011;69915;54.862;10.730;2024-03-29T09:55:02;1.52;;;0.63;;
80565;SDS011;69915;54.862;10.730;2024-03-29T09:57:28;6.30;;;0.80;;
80565;SDS011;69915;54.862;10.730;2024-03-29T09:59:57;5.82;;;1.13;;
80565;SDS011;69915;54.862;10.730;2024-03-29T10:02:22;0.55;;;0.25;;
80565;SDS011;69915;54.862;10.730;2024-03-29T10:04:53;1.98;;;0.60;;
80565;SDS011;69915;54.862;10.730;2024-03-29T10:07:21;1.48;;;0.55;;
80565;SDS011;69915;54.862;10.730;2024-03-29T10:09:48;4.03;;;1.50;;
80565;SDS011;69915;54.862;10.730;2024-03-29T10:12:16;2.92;;;1.17;;
80565;SDS011;69915;54.862;10.730;2024-03-29T10:14:49;3.97;;;1.33;;
80565;SDS011;69915;54.862;10.730;2024-03-29T10:17:17;5.15;;;1.08;;
80565;SDS011;69915;54.862;10.730;2024-03-29T10:19:43;1.88;;;0.52;;
80565;SDS011;69915;54.862;10.730;2024-03-29T10:22:09;3.38;;;1.73;;
80565;SDS011;69915;54.862;10.730;2024-03-29T10:24:35;2.03;;;0.60;;
80565;SDS011;69915;54.862;10.730;2024-03-29T10:27:02;3.00;;;0.55;;
80565;SDS011;69915;54.862;10.730;2024-03-29T10:29:28;1.33;;;0.28;;
80565;SDS011;69915;54.862;10.730;2024-03-29T10:31:56;0.85;;;0.20;;
80565;SDS011;69915;54.862;10.730;2024-03-29T10:34:22;2.72;;;0.50;;
80565;SDS011;69915;54.862;10.730;2024-03-29T10:36:50;2.35;;;0.50;;
80565;SDS011;69915;54.862;10.730;2024-03-29T10:39:16;0.85;;;0.60;;
80565;SDS011;69915;54.862;10.730;2024-03-29T10:41:46;2.25;;;0.47;;
80565;SDS011;69915;54.862;10.730;2024-03-29T10:44:12;3.20;;;0.80;;
80565;SDS011;69915;54.862;10.730;2024-03-29T10:46:39;1.33;;;0.50;;
80565;SDS011;69915;54.862;10.730;2024-03-29T10:49:12;1.85;;;0.55;;
80565;SDS011;69915;54.862;10.730;2024-03-29T10:51:42;2.40;;;0.77;;
80565;SDS011;69915;54.862;10.730;2024-03-29T10:54:09;2.00;;;0.70;;
80565;SDS011;69915;54.862;10.730;2024-03-29T10:56:35;3.53;;;0.70;;
80565;SDS011;69915;54.862;10.730;2024-03-29T10:59:27;1.80;;;0.40;;
80565;SDS011;69915;54.862;10.730;2024-03-29T11:01:55;1.05;;;0.35;;
80565;SDS011;69915;54.862;10.730;2024-03-29T11:04:29;3.40;;;0.60;;
80565;SDS011;69915;54.862;10.730;2024-03-29T11:06:59;3.40;;;0.63;;
80565;SDS011;69915;54.862;10.730;2024-03-29T11:09:31;2.08;;;0.55;;
80565;SDS011;69915;54.862;10.730;2024-03-29T11:12:00;3.70;;;0.77;;
80565;SDS011;69915;54.862;10.730;2024-03-29T11:14:34;4.28;;;0.70;;
80565;SDS011;69915;54.862;10.730;2024-03-29T11:17:11;3.50;;;1.20;;
80565;SDS011;69915;54.862;10.730;2024-03-29T11:19:39;2.13;;;0.52;;
80565;SDS011;69915;54.862;10.730;2024-03-29T11:22:05;3.20;;;1.05;;
80565;SDS011;69915;54.862;10.730;2024-03-29T11:24:31;2.85;;;0.82;;
80565;SDS011;69915;54.862;10.730;2024-03-29T11:26:57;4.00;;;0.50;;
80565;SDS011;69915;54.862;10.730;2024-03-29T11:29:23;3.45;;;0.95;;
80565;SDS011;69915;54.862;10.730;2024-03-29T11:31:58;3.17;;;0.65;;
80565;SDS011;69915;54.862;10.730;2024-03-29T11:34:24;1.17;;;0.47;;
80565;SDS011;69915;54.862;10.730;2024-03-29T11:36:49;2.42;;;0.70;;
80565;SDS011;69915;54.862;10.730;2024-03-29T11:39:21;2.33;;;1.08;;
80565;SDS011;69915;54.862;10.730;2024-03-29T11:41:48;1.58;;;0.75;;
80565;SDS011;69915;54.862;10.730;2024-03-29T11:44:15;2.15;;;0.90;;
80565;SDS011;69915;54.862;10.730;2024-03-29T11:46:41;7.20;;;0.95;;
80565;SDS011;69915;54.862;10.730;2024-03-29T11:49:08;5.13;;;1.10;;
80565;SDS011;69915;54.862;10.730;2024-03-29T11:51:34;2.88;;;0.70;;
80565;SDS011;69915;54.862;10.730;2024-03-29T11:54:00;4.55;;;0.70;;
80565;SDS011;69915;54.862;10.730;2024-03-29T11:56:25;2.53;;;0.65;;
80565;SDS011;69915;54.862;10.730;2024-03-29T11:58:51;0.98;;;0.40;;
80565;SDS011;69915;54.862;10.730;2024-03-29T12:01:18;3.20;;;0.70;;
80565;SDS011;69915;54.862;10.730;2024-03-29T12:03:44;3.10;;;0.80;;
80565;SDS011;69915;54.862;10.730;2024-03-29T12:06:09;0.68;;;0.20;;
80565;SDS011;69915;54.862;10.730;2024-03-29T12:08:37;1.13;;;0.52;;
80565;SDS011;69915;54.862;10.730;2024-03-29T12:11:04;1.65;;;0.63;;
80565;SDS011;69915;54.862;10.730;2024-03-29T12:13:31;1.85;;;0.70;;
80565;SDS011;69915;54.862;10.730;2024-03-29T12:15:57;3.53;;;0.50;;
80565;SDS011;69915;54.862;10.730;2024-03-29T12:18:24;1.40;;;0.47;;
80565;SDS011;69915;54.862;10.730;2024-03-29T12:20:51;1.35;;;0.60;;
80565;SDS011;69915;54.862;10.730;2024-03-29T12:23:20;0.70;;;0.50;;
80565;SDS011;69915;54.862;10.730;2024-03-29T12:25:47;0.90;;;0.43;;
80565;SDS011;69915;54.862;10.730;2024-03-29T12:28:20;1.88;;;0.60;;
80565;SDS011;69915;54.862;10.730;2024-03-29T12:30:47;1.67;;;0.55;;
80565;SDS011;69915;54.862;10.730;2024-03-29T12:33:14;2.63;;;0.50;;
80565;SDS011;69915;54.862;10.730;2024-03-29T12:35:44;1.40;;;0.70;;
80565;SDS011;69915;54.862;10.730;2024-03-29T12:38:13;0.32;;;0.20;;
80565;SDS011;69915;54.862;10.730;2024-03-29T12:40:40;1.65;;;0.30;;
80565;SDS011;69915;54.862;10.730;2024-03-29T12:43:09;2.72;;;0.68;;
80565;SDS011;69915;54.862;10.730;2024-03-29T12:45:35;1.92;;;0.43;;
80565;SDS011;69915;54.862;10.730;2024-03-29T12:48:02;3.60;;;0.95;;
80565;SDS011;69915;54.862;10.730;2024-03-29T12:50:28;0.85;;;0.47;;
80565;SDS011;69915;54.862;10.730;2024-03-29T12:53:01;1.67;;;0.40;;
80565;SDS011;69915;54.862;10.730;2024-03-29T12:55:31;3.58;;;0.32;;
80565;SDS011;69915;54.862;10.730;2024-03-29T12:58:00;1.70;;;0.70;;
80565;SDS011;69915;54.862;10.730;2024-03-29T13:00:26;1.35;;;0.40;;
80565;SDS011;69915;54.862;10.730;2024-03-29T13:02:55;3.13;;;0.60;;
80565;SDS011;69915;54.862;10.730;2024-03-29T13:05:20;1.90;;;0.35;;
80565;SDS011;69915;54.862;10.730;2024-03-29T13:07:46;0.90;;;0.40;;
80565;SDS011;69915;54.862;10.730;2024-03-29T13:10:12;3.28;;;0.55;;
80565;SDS011;69915;54.862;10.730;2024-03-29T13:12:41;1.45;;;0.40;;
80565;SDS011;69915;54.862;10.730;2024-03-29T13:15:21;3.33;;;0.65;;
80565;SDS011;69915;54.862;10.730;2024-03-29T13:17:50;1.40;;;0.40;;
80565;SDS011;69915;54.862;10.730;2024-03-29T13:20:17;2.08;;;0.52;;
80565;SDS011;69915;54.862;10.730;2024-03-29T13:22:43;1.30;;;0.47;;
80565;SDS011;69915;54.862;10.730;2024-03-29T13:25:11;1.40;;;0.47;;
80565;SDS011;69915;54.862;10.730;2024-03-29T13:27:38;0.43;;;0.30;;
80565;SDS011;69915;54.862;10.730;2024-03-29T13:30:05;2.20;;;0.90;;
80565;SDS011;69915;54.862;10.730;2024-03-29T13:32:31;1.40;;;0.35;;
80565;SDS011;69915;54.862;10.730;2024-03-29T13:34:58;1.25;;;0.60;;
80565;SDS011;69915;54.862;10.730;2024-03-29T13:37:25;4.63;;;0.77;;
80565;SDS011;69915;54.862;10.730;2024-03-29T13:39:52;4.38;;;0.60;;
80565;SDS011;69915;54.862;10.730;2024-03-29T13:42:21;1.05;;;0.40;;
80565;SDS011;69915;54.862;10.730;2024-03-29T13:44:53;1.88;;;0.52;;
80565;SDS011;69915;54.862;10.730;2024-03-29T13:47:19;0.98;;;0.30;;
80565;SDS011;69915;54.862;10.730;2024-03-29T13:49:45;1.05;;;0.50;;
80565;SDS011;69915;54.862;10.730;2024-03-29T13:52:14;1.25;;;0.63;;
80565;SDS011;69915;54.862;10.730;2024-03-29T13:54:44;3.53;;;0.70;;
80565;SDS011;69915;54.862;10.730;2024-03-29T13:57:12;3.67;;;0.65;;
80565;SDS011;69915;54.862;10.730;2024-03-29T13:59:41;0.55;;;0.30;;
80565;SDS011;69915;54.862;10.730;2024-03-29T14:02:13;1.17;;;0.70;;
80565;SDS011;69915;54.862;10.730;2024-03-29T14:04:41;1.00;;;0.50;;
80565;SDS011;69915;54.862;10.730;2024-03-29T14:07:08;1.38;;;0.60;;
80565;SDS011;69915;54.862;10.730;2024-03-29T14:09:36;1.13;;;0.47;;
80565;SDS011;69915;54.862;10.730;2024-03-29T14:12:03;1.98;;;0.90;;
80565;SDS011;69915;54.862;10.730;2024-03-29T14:14:29;1.48;;;0.65;;
80565;SDS011;69915;54.862;10.730;2024-03-29T14:16:55;1.73;;;0.88;;
80565;SDS011;69915;54.862;10.730;2024-03-29T14:19:21;3.40;;;0.70;;
80565;SDS011;69915;54.862;10.730;2024-03-29T14:21:47;3.05;;;0.65;;
80565;SDS011;69915;54.862;10.730;2024-03-29T14:24:12;2.97;;;1.05;;
80565;SDS011;69915;54.862;10.730;2024-03-29T14:26:38;1.92;;;0.80;;
80565;SDS011;69915;54.862;10.730;2024-03-29T14:29:04;2.40;;;0.73;;
80565;SDS011;69915;54.862;10.730;2024-03-29T14:31:31;3.95;;;0.80;;
80565;SDS011;69915;54.862;10.730;2024-03-29T14:33:57;2.60;;;0.70;;